Augusta, Wisconsin
Current Conditions -  °F | °C
As of 7:56 PM on Saturday 25 Oct 2014 (Local Time) from KEAU Reporting Station
Clear Clear  
Wind Chill: 52°   Ceiling: Unl
Heat Index: 52°   Visibility: 10mi
Dew Point: 26°   Wind: 7mph
Humidity: 37%   Direction: 290°WNW
Pressure: 30"   Gusts: NA
Location:  44.68°N, 91.12°W
Report Text: KEAU 260056Z 29006KT 10SM CLR 11/M03 A3000 RMK AO2 SLP162 T01111033
Loading
Personal Weather Stations






























Interactive Weather Map
Tropical Storm Tracking
New forecast layout! Learn more

10-Day Weather Forecast

Advertisements
Track Severe Weather on mobile